Time;durP1;ratioP1;P1;durP2;ratioP2;P2;SDS_P1;SDS_P2;PMS_P1;PMS_P2;Temp;Humidity;BMP_temperature;BMP_pressure;BME280_temperature;BME280_humidity;BME280_pressure;Samples;Min_cycle;Max_cycle;Signal;HPM_P1;HPM_P2
2023/09/12 00:00:57;;;;;;;35.80;27.02;;;19.60;99.90;;;;;;5009227;28;20054;-71
2023/09/12 00:03:23;;;;;;;37.42;27.85;;;19.50;99.90;;;;;;4976862;28;20058;-71
2023/09/12 00:05:53;;;;;;;38.55;27.60;;;19.50;99.90;;;;;;4999691;28;20069;-71
2023/09/12 00:08:19;;;;;;;38.65;28.92;;;19.50;99.90;;;;;;4999087;28;20440;-71
2023/09/12 00:10:45;;;;;;;35.22;27.13;;;19.50;99.90;;;;;;5009397;28;20056;-71
2023/09/12 00:13:10;;;;;;;38.70;28.10;;;19.50;99.90;;;;;;5000113;28;20397;-71
2023/09/12 00:15:36;;;;;;;39.53;29.35;;;19.50;99.90;;;;;;5001996;28;20046;-71
2023/09/12 00:18:02;;;;;;;37.28;28.45;;;19.50;99.90;;;;;;4989676;28;20097;-73
2023/09/12 00:20:28;;;;;;;40.65;29.67;;;19.50;99.90;;;;;;5013067;28;20052;-73
2023/09/12 00:22:54;;;;;;;36.28;27.15;;;19.50;99.90;;;;;;5003444;28;20049;-73
2023/09/12 00:25:21;;;;;;;34.22;28.08;;;19.50;99.90;;;;;;4987769;28;20239;-73
2023/09/12 00:27:46;;;;;;;33.92;27.40;;;19.40;99.90;;;;;;5001816;28;20088;-73
2023/09/12 00:30:14;;;;;;;36.13;28.80;;;19.40;99.90;;;;;;5002899;28;20037;-73
2023/09/12 00:32:40;;;;;;;37.05;28.15;;;19.40;99.90;;;;;;5003571;28;20077;-73
2023/09/12 00:35:06;;;;;;;33.10;27.38;;;19.40;99.90;;;;;;5012749;28;20038;-73
2023/09/12 00:37:31;;;;;;;34.08;26.35;;;19.40;99.90;;;;;;5003298;28;20042;-73
2023/09/12 00:39:57;;;;;;;32.80;26.95;;;19.40;99.90;;;;;;5003188;28;20156;-73
2023/09/12 00:42:26;;;;;;;34.53;27.88;;;19.40;99.90;;;;;;5004316;28;20103;-74
2023/09/12 00:44:51;;;;;;;34.13;26.20;;;19.40;99.90;;;;;;4986568;28;20100;-74
2023/09/12 00:47:18;;;;;;;34.03;27.42;;;19.30;99.90;;;;;;5012461;28;20442;-72
2023/09/12 00:49:45;;;;;;;30.30;25.80;;;19.30;99.90;;;;;;5005893;28;20104;-73
2023/09/12 00:52:12;;;;;;;34.20;26.85;;;19.20;99.90;;;;;;5002661;28;20053;-74
2023/09/12 00:54:39;;;;;;;33.42;26.85;;;19.20;99.90;;;;;;5012359;28;20084;-73
2023/09/12 00:57:05;;;;;;;34.10;26.88;;;19.20;99.90;;;;;;5012397;28;20083;-73
2023/09/12 00:59:31;;;;;;;35.33;27.38;;;19.20;99.90;;;;;;5011114;28;20042;-73
2023/09/12 01:01:57;;;;;;;35.92;27.27;;;19.20;99.90;;;;;;5003788;28;20065;-73
2023/09/12 01:04:23;;;;;;;34.00;26.38;;;19.10;99.90;;;;;;4999162;28;20062;-75
2023/09/12 01:06:48;;;;;;;34.97;25.85;;;19.10;99.90;;;;;;5020504;28;20058;-74
2023/09/12 01:09:14;;;;;;;40.03;29.38;;;19.10;99.90;;;;;;5002532;28;20042;-73
2023/09/12 01:11:41;;;;;;;35.05;28.42;;;19.10;99.90;;;;;;5020479;28;20066;-73
2023/09/12 01:14:06;;;;;;;41.35;30.55;;;19.10;99.90;;;;;;5019417;28;20056;-73
2023/09/12 01:16:32;;;;;;;37.20;29.65;;;19.10;99.90;;;;;;4978364;28;20377;-75
2023/09/12 01:18:58;;;;;;;37.72;28.98;;;19.00;99.90;;;;;;5005346;28;20045;-75
2023/09/12 01:22:01;;;;;;;38.03;30.27;;;19.10;99.90;;;;;;4994541;28;20080;-74
2023/09/12 01:24:55;;;;;;;49.13;31.75;;;19.00;99.90;;;;;;4982116;28;20077;-71
2023/09/12 01:27:34;;;;;;;37.38;28.40;;;19.00;99.90;;;;;;5002120;28;20061;-74
2023/09/12 01:30:05;;;;;;;33.08;26.38;;;19.00;99.90;;;;;;5002867;28;20741;-73
2023/09/12 01:32:33;;;;;;;31.48;25.50;;;18.90;99.90;;;;;;5005039;28;20085;-74
2023/09/12 01:34:59;;;;;;;38.10;27.95;;;18.90;99.90;;;;;;5011905;28;20034;-74
2023/09/12 01:37:26;;;;;;;31.65;23.65;;;18.80;99.90;;;;;;5011916;28;20044;-73
2023/09/12 01:39:52;;;;;;;30.67;24.20;;;18.70;99.90;;;;;;5011734;28;20500;-72
2023/09/12 01:42:20;;;;;;;31.42;26.20;;;18.70;99.90;;;;;;4998843;28;20049;-74
2023/09/12 01:44:49;;;;;;;31.27;24.50;;;18.70;99.90;;;;;;5016206;28;20077;-74
2023/09/12 01:47:17;;;;;;;31.75;24.80;;;18.70;99.90;;;;;;5017490;28;20050;-74
2023/09/12 01:49:47;;;;;;;33.45;26.70;;;18.60;99.90;;;;;;4995760;28;20051;-74
2023/09/12 01:52:14;;;;;;;34.13;27.75;;;18.60;99.90;;;;;;5011732;28;20034;-73
2023/09/12 01:54:41;;;;;;;37.80;29.55;;;18.70;99.90;;;;;;5001087;28;20052;-74
2023/09/12 01:57:08;;;;;;;43.47;30.27;;;18.60;99.90;;;;;;4993894;28;20045;-74
2023/09/12 01:59:34;;;;;;;35.88;27.67;;;18.70;99.90;;;;;;5011285;28;20064;-74
2023/09/12 02:01:59;;;;;;;38.65;29.80;;;18.70;99.90;;;;;;5001214;28;20062;-74
2023/09/12 02:04:25;;;;;;;32.22;26.48;;;18.70;99.90;;;;;;5008334;28;20145;-75
2023/09/12 02:06:51;;;;;;;39.20;28.35;;;18.70;99.90;;;;;;5012059;28;20711;-75
2023/09/12 02:09:16;;;;;;;32.30;26.83;;;18.60;99.90;;;;;;5029987;28;20060;-74
2023/09/12 02:11:42;;;;;;;32.08;25.48;;;18.60;99.90;;;;;;5012480;28;20041;-71
2023/09/12 02:14:08;;;;;;;32.85;25.77;;;18.50;99.90;;;;;;5029642;28;20041;-73
2023/09/12 02:16:39;;;;;;;32.80;26.20;;;18.50;99.90;;;;;;5030002;28;20037;-72
2023/09/12 02:19:06;;;;;;;41.40;31.17;;;18.40;99.90;;;;;;5011801;28;20083;-71
2023/09/12 02:21:32;;;;;;;33.55;26.20;;;18.40;99.90;;;;;;5029712;28;20077;-71
2023/09/12 02:23:58;;;;;;;39.38;29.17;;;18.40;99.90;;;;;;5029823;28;20041;-71
2023/09/12 02:26:23;;;;;;;35.97;28.40;;;18.40;99.90;;;;;;5029196;28;20407;-71
2023/09/12 02:28:49;;;;;;;34.70;26.70;;;18.30;99.90;;;;;;5029729;28;20405;-71
2023/09/12 02:31:14;;;;;;;36.67;28.25;;;18.30;99.90;;;;;;5029629;28;20077;-71
2023/09/12 02:33:40;;;;;;;37.13;28.60;;;18.30;99.90;;;;;;5029748;28;20116;-70
2023/09/12 02:36:06;;;;;;;35.85;29.45;;;18.30;99.90;;;;;;5028960;28;20496;-71
2023/09/12 02:38:32;;;;;;;37.08;28.05;;;18.40;99.90;;;;;;5028823;28;20033;-71
2023/09/12 02:40:58;;;;;;;38.80;29.63;;;18.40;99.90;;;;;;5029613;28;20037;-72
2023/09/12 02:43:24;;;;;;;43.80;30.77;;;18.40;99.90;;;;;;5029515;28;20053;-73
2023/09/12 02:45:49;;;;;;;38.63;30.48;;;18.40;99.90;;;;;;5011030;28;20060;-73
2023/09/12 02:48:15;;;;;;;43.17;28.80;;;18.40;99.90;;;;;;5029770;28;20037;-74
2023/09/12 02:50:41;;;;;;;34.70;28.65;;;18.50;99.90;;;;;;5029112;28;20381;-74
2023/09/12 02:53:06;;;;;;;41.03;29.50;;;18.40;99.90;;;;;;5029576;28;20408;-71
2023/09/12 02:55:32;;;;;;;37.58;28.70;;;18.40;99.90;;;;;;5011862;28;20045;-74
2023/09/12 02:57:58;;;;;;;42.28;29.77;;;18.50;99.90;;;;;;5029566;28;20045;-73
2023/09/12 03:00:24;;;;;;;38.80;28.80;;;18.50;99.90;;;;;;5029083;28;20048;-72
2023/09/12 03:05:19;;;;;;;44.47;30.98;;;18.50;99.90;;;;;;5069865;28;20937;-71
2023/09/12 03:07:45;;;;;;;37.22;28.92;;;18.50;99.90;;;;;;5066797;28;20052;-72
2023/09/12 03:10:11;;;;;;;40.20;29.95;;;18.50;99.90;;;;;;5066698;28;20045;-71
2023/09/12 03:12:37;;;;;;;44.65;30.27;;;18.50;99.90;;;;;;5066169;28;20094;-72
2023/09/12 03:15:03;;;;;;;38.85;30.40;;;18.50;99.90;;;;;;5065844;28;20112;-71
2023/09/12 03:17:29;;;;;;;40.70;30.85;;;18.50;99.90;;;;;;5070266;28;20056;-72
2023/09/12 03:19:54;;;;;;;42.42;30.30;;;18.50;99.90;;;;;;5066585;28;20640;-70
2023/09/12 03:22:20;;;;;;;44.05;29.95;;;18.50;99.90;;;;;;5064437;28;20088;-70
2023/09/12 03:24:46;;;;;;;43.67;31.55;;;18.50;99.90;;;;;;5066403;28;20439;-72
2023/09/12 03:27:11;;;;;;;42.95;31.25;;;18.50;99.90;;;;;;5066551;28;20045;-70
2023/09/12 03:29:37;;;;;;;45.72;32.10;;;18.50;99.90;;;;;;5065490;28;20044;-72
2023/09/12 03:32:03;;;;;;;42.58;30.63;;;18.40;99.90;;;;;;5064801;28;20083;-71
2023/09/12 03:34:28;;;;;;;44.00;30.98;;;18.40;99.90;;;;;;5069717;28;20120;-71
2023/09/12 03:36:54;;;;;;;39.58;29.83;;;18.40;99.90;;;;;;5067394;28;20041;-71
2023/09/12 03:39:20;;;;;;;41.78;29.58;;;18.30;99.90;;;;;;5067122;28;20052;-70
2023/09/12 03:41:45;;;;;;;38.95;29.67;;;18.30;99.90;;;;;;5071414;28;20472;-71
2023/09/12 03:44:11;;;;;;;41.35;29.92;;;18.30;99.90;;;;;;5070617;28;20086;-71
2023/09/12 03:46:36;;;;;;;37.30;29.55;;;18.30;99.90;;;;;;5067398;28;20052;-71
2023/09/12 03:49:03;;;;;;;39.88;29.05;;;18.30;99.90;;;;;;5064640;28;20041;-72
2023/09/12 03:51:29;;;;;;;43.70;29.73;;;18.30;99.90;;;;;;5065205;28;20124;-72
2023/09/12 03:53:54;;;;;;;39.97;29.52;;;18.30;99.90;;;;;;5064433;28;21045;-72
2023/09/12 03:56:20;;;;;;;34.95;26.92;;;18.20;99.90;;;;;;5066185;28;20048;-70
2023/09/12 03:58:46;;;;;;;38.75;28.27;;;18.20;99.90;;;;;;5066145;28;20095;-71
2023/09/12 04:01:12;;;;;;;41.00;28.45;;;18.20;99.90;;;;;;5066384;28;20072;-70
2023/09/12 04:03:38;;;;;;;37.70;28.27;;;18.20;99.90;;;;;;5068574;28;20079;-70
2023/09/12 04:06:04;;;;;;;39.13;28.15;;;18.20;99.90;;;;;;5068468;28;20156;-71
2023/09/12 04:08:29;;;;;;;40.35;27.55;;;18.20;99.90;;;;;;5065169;28;20760;-71
2023/09/12 04:10:55;;;;;;;37.92;27.67;;;18.20;99.90;;;;;;5064203;28;20115;-73
2023/09/12 04:13:21;;;;;;;42.60;27.73;;;18.20;99.90;;;;;;5063916;28;20129;-71
2023/09/12 04:15:46;;;;;;;36.35;26.45;;;18.20;99.90;;;;;;5055540;28;20040;-71
2023/09/12 04:18:12;;;;;;;33.88;24.42;;;18.10;99.90;;;;;;5052198;28;20094;-71
2023/09/12 04:20:37;;;;;;;35.25;24.23;;;18.00;99.90;;;;;;5050746;28;20409;-71
2023/09/12 04:23:03;;;;;;;36.67;24.65;;;18.00;99.90;;;;;;5052075;28;20120;-72
2023/09/12 04:25:30;;;;;;;30.17;23.85;;;17.90;99.90;;;;;;5033684;28;20041;-71
2023/09/12 04:27:56;;;;;;;41.28;23.55;;;17.80;99.90;;;;;;5050898;28;20083;-71
2023/09/12 04:30:21;;;;;;;30.73;25.90;;;17.90;99.90;;;;;;5051926;28;20577;-70
2023/09/12 04:32:47;;;;;;;34.40;26.77;;;17.80;99.90;;;;;;5051419;28;20047;-70
2023/09/12 04:35:13;;;;;;;33.65;27.95;;;17.80;99.90;;;;;;5052257;28;20127;-72
2023/09/12 04:37:38;;;;;;;32.50;25.58;;;17.80;99.90;;;;;;5050284;28;20392;-71
2023/09/12 04:40:06;;;;;;;39.75;28.90;;;17.70;99.90;;;;;;5050442;28;20800;-71
2023/09/12 04:42:32;;;;;;;37.20;27.67;;;17.80;99.90;;;;;;5055655;28;20456;-70
2023/09/12 04:44:58;;;;;;;37.63;27.38;;;17.70;99.90;;;;;;5050194;28;20127;-70
2023/09/12 04:47:23;;;;;;;40.35;28.23;;;17.70;99.90;;;;;;5050226;28;20445;-71
2023/09/12 04:49:49;;;;;;;34.72;25.33;;;17.70;99.90;;;;;;5033497;28;20053;-70
2023/09/12 04:52:15;;;;;;;33.13;25.77;;;17.60;99.90;;;;;;5051386;28;20706;-70
2023/09/12 04:54:40;;;;;;;43.50;28.60;;;17.60;99.90;;;;;;5050076;28;20053;-69
2023/09/12 04:57:07;;;;;;;39.15;29.13;;;17.60;99.90;;;;;;5050989;28;20045;-70
2023/09/12 04:59:33;;;;;;;36.15;27.08;;;17.60;99.90;;;;;;5051343;28;20489;-71
2023/09/12 05:01:58;;;;;;;33.38;25.88;;;17.60;99.90;;;;;;5033015;28;20045;-73
2023/09/12 05:04:24;;;;;;;34.95;24.70;;;17.60;99.90;;;;;;5049253;28;20128;-73
2023/09/12 05:06:49;;;;;;;45.67;27.02;;;17.60;99.90;;;;;;5049909;28;20840;-74
2023/09/12 05:09:16;;;;;;;71.10;30.88;;;17.50;99.90;;;;;;5049664;28;20040;-74
2023/09/12 05:11:41;;;;;;;62.95;33.47;;;17.60;99.90;;;;;;5052726;28;20052;-73
2023/09/12 05:14:07;;;;;;;55.88;31.05;;;17.60;99.90;;;;;;5050818;28;20044;-73
2023/09/12 05:16:33;;;;;;;83.13;34.65;;;17.60;99.90;;;;;;5033381;28;20198;-73
2023/09/12 05:18:58;;;;;;;44.80;29.02;;;17.70;99.90;;;;;;5049558;28;20130;-74
2023/09/12 05:21:24;;;;;;;89.47;35.83;;;17.60;99.90;;;;;;5049444;28;20049;-73
2023/09/12 05:23:50;;;;;;;59.10;33.28;;;17.60;99.90;;;;;;5050706;28;20053;-74
2023/09/12 05:26:15;;;;;;;65.15;34.03;;;17.70;99.90;;;;;;5050336;28;20057;-74
2023/09/12 05:28:41;;;;;;;69.50;33.13;;;17.70;99.90;;;;;;5050260;28;20045;-74
2023/09/12 05:31:07;;;;;;;57.72;33.35;;;17.70;99.90;;;;;;5049546;28;20063;-73
2023/09/12 05:33:32;;;;;;;80.63;36.60;;;17.70;99.90;;;;;;5049127;28;20099;-72
2023/09/12 05:35:58;;;;;;;52.45;34.22;;;17.70;99.90;;;;;;5050264;28;20045;-73
2023/09/12 05:38:24;;;;;;;114.18;36.15;;;17.70;99.90;;;;;;5050704;28;20120;-74
2023/09/12 05:40:49;;;;;;;67.60;36.33;;;17.80;99.90;;;;;;5048727;28;20628;-71
2023/09/12 05:43:16;;;;;;;87.00;35.55;;;17.80;99.90;;;;;;5032250;28;20061;-72
2023/09/12 05:45:42;;;;;;;96.20;37.70;;;17.80;99.90;;;;;;5032713;28;20071;-73
2023/09/12 05:48:09;;;;;;;70.63;36.58;;;17.80;99.90;;;;;;5049003;28;20429;-72
2023/09/12 05:50:36;;;;;;;54.92;35.15;;;17.80;99.90;;;;;;5050334;28;20053;-70
2023/09/12 05:53:02;;;;;;;82.70;38.97;;;17.90;99.90;;;;;;5042876;28;20076;-71
2023/09/12 05:55:28;;;;;;;74.75;38.03;;;17.90;99.90;;;;;;5049738;28;20052;-72
2023/09/12 05:57:54;;;;;;;67.20;37.30;;;17.90;99.90;;;;;;5049982;28;20713;-71
2023/09/12 06:00:20;;;;;;;74.40;37.55;;;18.00;99.90;;;;;;5058642;28;20577;-72
2023/09/12 06:02:47;;;;;;;122.28;39.75;;;18.00;99.90;;;;;;5050374;28;20064;-71
2023/09/12 06:05:14;;;;;;;104.40;40.15;;;18.00;99.90;;;;;;5040366;28;20049;-72
2023/09/12 06:07:41;;;;;;;75.90;38.30;;;18.10;99.90;;;;;;5050548;28;20094;-71
2023/09/12 06:10:07;;;;;;;100.50;39.85;;;18.10;99.90;;;;;;5048779;28;20055;-72
2023/09/12 06:12:35;;;;;;;69.75;38.50;;;18.10;99.90;;;;;;5054551;28;20079;-72
2023/09/12 06:15:02;;;;;;;81.65;38.65;;;18.10;99.90;;;;;;5049506;28;20090;-72
2023/09/12 06:17:28;;;;;;;70.80;39.22;;;18.20;99.90;;;;;;5050267;28;20033;-71
2023/09/12 06:19:55;;;;;;;106.32;40.50;;;18.10;99.90;;;;;;5031955;28;20049;-72
2023/09/12 06:22:22;;;;;;;72.32;38.03;;;18.20;99.90;;;;;;5048766;28;20061;-72
2023/09/12 06:24:49;;;;;;;71.85;39.08;;;18.20;99.90;;;;;;5050294;28;20136;-71
2023/09/12 06:27:18;;;;;;;65.50;38.92;;;18.20;99.90;;;;;;5050039;28;20040;-71
2023/09/12 06:29:45;;;;;;;62.67;37.20;;;18.20;99.90;;;;;;5050355;28;20044;-73
2023/09/12 06:32:11;;;;;;;66.32;37.85;;;18.20;99.90;;;;;;5049403;28;20061;-72
2023/09/12 06:34:37;;;;;;;70.07;37.92;;;18.30;99.90;;;;;;5048750;28;20381;-73
2023/09/12 06:37:02;;;;;;;65.50;39.05;;;18.30;99.90;;;;;;5050127;28;20472;-72
2023/09/12 06:39:28;;;;;;;74.28;37.95;;;18.30;99.90;;;;;;5049379;28;20045;-72
2023/09/12 06:41:54;;;;;;;60.70;36.42;;;18.30;99.90;;;;;;5048766;28;20045;-72
2023/09/12 06:44:19;;;;;;;63.42;35.88;;;18.40;99.90;;;;;;5048149;28;20510;-72
2023/09/12 06:46:45;;;;;;;70.47;36.97;;;18.30;99.90;;;;;;5049336;28;20117;-74
2023/09/12 06:49:10;;;;;;;57.67;35.33;;;18.40;99.90;;;;;;5048166;28;20063;-71
2023/09/12 06:51:36;;;;;;;60.72;36.45;;;18.40;99.90;;;;;;5048041;28;20045;-70
2023/09/12 06:54:02;;;;;;;61.38;36.53;;;18.40;99.90;;;;;;5048382;28;20044;-71
2023/09/12 06:56:28;;;;;;;57.63;35.63;;;18.40;99.90;;;;;;5048064;28;20060;-70
2023/09/12 06:58:55;;;;;;;63.38;37.00;;;18.40;99.90;;;;;;5049199;28;20041;-71
2023/09/12 07:01:20;;;;;;;60.38;36.15;;;18.50;99.90;;;;;;5049478;28;20510;-72
2023/09/12 07:03:46;;;;;;;71.93;36.15;;;18.50;99.90;;;;;;5049385;28;20041;-71
2023/09/12 07:06:12;;;;;;;60.78;36.85;;;18.60;99.90;;;;;;5047768;28;20800;-70
2023/09/12 07:08:38;;;;;;;64.78;36.72;;;18.60;99.90;;;;;;5049013;28;20514;-70
2023/09/12 07:11:07;;;;;;;56.55;34.92;;;18.60;99.90;;;;;;5047802;28;20415;-72
2023/09/12 07:13:33;;;;;;;55.15;35.00;;;18.70;99.90;;;;;;5049504;28;20084;-71
2023/09/12 07:15:59;;;;;;;65.43;35.10;;;18.70;99.90;;;;;;5047651;28;20124;-71
2023/09/12 07:18:25;;;;;;;82.00;39.85;;;18.80;99.90;;;;;;5049399;28;20379;-73
2023/09/12 07:21:02;;;;;;;80.43;39.80;;;18.80;99.90;;;;;;5049408;28;20049;-73
2023/09/12 07:23:28;;;;;;;62.85;36.75;;;18.90;99.90;;;;;;5047629;28;20065;-75
2023/09/12 07:25:57;;;;;;;67.50;39.35;;;18.90;99.90;;;;;;5050527;28;20492;-74
2023/09/12 07:28:26;;;;;;;56.28;36.13;;;19.00;99.90;;;;;;5047996;28;20460;-73
2023/09/12 07:30:52;;;;;;;69.93;39.40;;;19.00;99.90;;;;;;5047966;28;20041;-74
2023/09/12 07:33:18;;;;;;;66.38;38.70;;;19.10;99.90;;;;;;5048725;28;20058;-73
2023/09/12 07:35:44;;;;;;;58.70;36.65;;;19.10;99.90;;;;;;5048118;28;20049;-74
2023/09/12 07:38:09;;;;;;;67.75;37.88;;;19.10;99.90;;;;;;5050006;28;20392;-74
2023/09/12 07:40:35;;;;;;;65.32;37.88;;;19.20;99.90;;;;;;5032829;28;20094;-72
2023/09/12 07:43:01;;;;;;;61.78;38.33;;;19.20;99.90;;;;;;5048019;28;20045;-75
2023/09/12 07:45:27;;;;;;;60.58;36.08;;;19.30;99.90;;;;;;5049316;28;20405;-75
2023/09/12 07:47:52;;;;;;;66.95;37.63;;;19.30;99.90;;;;;;5048663;28;20040;-73
2023/09/12 07:50:18;;;;;;;72.28;39.20;;;19.30;99.90;;;;;;5048158;28;20059;-73
2023/09/12 07:52:44;;;;;;;68.68;39.10;;;19.30;99.90;;;;;;5053172;28;20798;-73
2023/09/12 07:55:09;;;;;;;70.53;38.70;;;19.30;99.90;;;;;;5053113;28;20045;-74
2023/09/12 07:57:36;;;;;;;62.97;38.08;;;19.30;99.90;;;;;;5052779;28;20056;-73
2023/09/12 08:00:05;;;;;;;72.75;39.78;;;19.30;99.90;;;;;;5052590;28;20049;-74
2023/09/12 08:02:30;;;;;;;72.30;42.45;;;19.30;99.90;;;;;;5034173;28;20056;-73
2023/09/12 08:04:56;;;;;;;73.10;40.63;;;19.40;99.90;;;;;;5056518;28;20464;-74
2023/09/12 08:07:22;;;;;;;69.43;41.28;;;19.40;99.90;;;;;;5051438;28;20087;-74
2023/09/12 08:09:55;;;;;;;71.35;40.15;;;19.40;99.90;;;;;;5055369;28;20044;-73
2023/09/12 08:12:22;;;;;;;75.07;41.50;;;19.40;99.90;;;;;;5047775;28;20045;-73
2023/09/12 08:14:48;;;;;;;69.40;40.33;;;19.50;99.90;;;;;;5052529;28;20037;-72
2023/09/12 08:17:14;;;;;;;67.63;40.17;;;19.50;99.90;;;;;;5050748;28;20365;-74
2023/09/12 08:19:41;;;;;;;73.30;41.80;;;19.60;99.90;;;;;;5050462;28;20152;-74
2023/09/12 08:22:08;;;;;;;70.03;40.58;;;19.70;99.90;;;;;;5052360;28;20103;-73
2023/09/12 08:24:37;;;;;;;68.05;39.45;;;19.70;99.90;;;;;;5051051;28;20044;-73
2023/09/12 08:27:03;;;;;;;67.65;39.75;;;19.70;99.90;;;;;;5051493;28;20041;-72
2023/09/12 08:29:29;;;;;;;62.10;39.45;;;19.70;99.90;;;;;;5052411;28;20053;-73
2023/09/12 08:31:55;;;;;;;68.05;40.38;;;19.80;99.90;;;;;;5052790;28;20620;-72
2023/09/12 08:34:21;;;;;;;61.65;39.97;;;19.80;99.90;;;;;;5051096;28;20052;-74
2023/09/12 08:36:47;;;;;;;74.65;42.65;;;20.00;99.90;;;;;;5051224;28;20080;-73
2023/09/12 08:39:15;;;;;;;65.72;40.38;;;20.10;99.90;;;;;;5051489;28;20045;-74
2023/09/12 08:41:47;;;;;;;70.03;42.15;;;20.20;99.90;;;;;;5050791;28;20110;-73
2023/09/12 08:44:13;;;;;;;68.20;41.92;;;20.30;99.90;;;;;;5052378;28;20053;-73
2023/09/12 08:46:42;;;;;;;66.00;40.97;;;20.30;99.90;;;;;;5052726;28;20052;-74
2023/09/12 08:49:09;;;;;;;63.35;41.38;;;20.30;99.90;;;;;;5053005;28;20045;-74
2023/09/12 08:51:44;;;;;;;64.40;41.15;;;20.30;99.90;;;;;;5050839;28;20045;-73
2023/09/12 08:54:10;;;;;;;63.80;40.95;;;20.30;99.90;;;;;;5050669;28;20044;-73
2023/09/12 08:56:39;;;;;;;65.05;41.08;;;20.40;99.90;;;;;;5052094;28;20452;-72
2023/09/12 08:59:06;;;;;;;71.40;42.08;;;20.40;99.90;;;;;;5061293;28;20483;-73
2023/09/12 09:01:33;;;;;;;65.07;40.60;;;20.40;99.90;;;;;;5050672;28;20053;-75
2023/09/12 09:04:03;;;;;;;62.80;41.42;;;20.50;99.90;;;;;;5049581;28;20060;-74
2023/09/12 09:06:31;;;;;;;66.93;43.08;;;20.50;99.90;;;;;;5051455;28;20475;-73
2023/09/12 09:08:59;;;;;;;61.40;40.72;;;20.50;99.90;;;;;;5050072;28;20044;-75
2023/09/12 09:11:27;;;;;;;62.53;40.00;;;20.50;99.90;;;;;;5050149;28;20056;-73
2023/09/12 09:13:54;;;;;;;64.05;39.55;;;20.50;99.90;;;;;;5049818;28;20048;-73
2023/09/12 09:16:21;;;;;;;64.45;40.00;;;20.50;99.90;;;;;;5051086;28;20404;-76
2023/09/12 09:18:52;;;;;;;69.78;42.22;;;20.60;99.90;;;;;;5050293;28;20803;-76
2023/09/12 09:21:19;;;;;;;64.90;39.85;;;20.60;99.90;;;;;;5049324;28;20048;-73
2023/09/12 09:23:46;;;;;;;57.80;39.05;;;20.60;99.90;;;;;;5049724;28;20049;-75
2023/09/12 09:26:12;;;;;;;64.18;40.08;;;20.70;99.90;;;;;;5049434;28;20084;-74
2023/09/12 09:28:39;;;;;;;62.25;39.70;;;20.70;99.90;;;;;;5051327;28;20138;-74
2023/09/12 09:31:09;;;;;;;68.32;41.30;;;20.80;99.90;;;;;;5050943;28;20129;-72
2023/09/12 09:33:36;;;;;;;66.00;41.17;;;20.80;99.90;;;;;;5051375;28;20102;-71
2023/09/12 09:36:04;;;;;;;69.20;41.97;;;20.80;99.90;;;;;;5051098;28;20041;-73
2023/09/12 09:38:30;;;;;;;65.82;41.45;;;20.90;99.90;;;;;;5050664;28;20040;-72
2023/09/12 09:40:56;;;;;;;67.28;41.15;;;21.00;99.90;;;;;;5050951;28;20774;-71
2023/09/12 09:43:22;;;;;;;64.55;41.85;;;21.10;99.90;;;;;;5049392;28;20131;-73
2023/09/12 09:45:48;;;;;;;72.15;42.22;;;21.20;99.90;;;;;;5049754;28;20385;-74
2023/09/12 09:48:21;;;;;;;69.28;41.38;;;21.30;99.90;;;;;;5049238;28;20052;-72
2023/09/12 09:50:47;;;;;;;67.15;40.92;;;21.40;99.90;;;;;;5051588;28;20484;-71
2023/09/12 09:53:13;;;;;;;65.93;39.63;;;21.70;99.90;;;;;;5048182;28;20140;-75
2023/09/12 09:55:39;;;;;;;61.00;37.75;;;21.80;99.90;;;;;;5051037;28;20138;-73
2023/09/12 09:58:07;;;;;;;62.88;38.92;;;22.00;99.90;;;;;;5050390;28;20493;-77
2023/09/12 10:00:37;;;;;;;61.10;40.42;;;22.10;99.90;;;;;;5050167;28;20155;-74
2023/09/12 10:03:06;;;;;;;59.40;36.65;;;22.20;99.90;;;;;;5054192;28;20071;-73
2023/09/12 10:05:37;;;;;;;56.38;35.33;;;22.30;99.90;;;;;;5049904;28;20511;-73
2023/09/12 10:08:06;;;;;;;54.25;34.88;;;22.40;99.90;;;;;;5049551;28;20116;-77
2023/09/12 10:10:34;;;;;;;54.13;35.17;;;22.40;99.90;;;;;;5050476;28;20041;-75
2023/09/12 10:13:03;;;;;;;55.88;35.35;;;22.40;99.90;;;;;;5049495;28;20052;-74
2023/09/12 10:15:30;;;;;;;49.58;33.92;;;22.40;99.90;;;;;;5049632;28;20037;-77
2023/09/12 10:17:58;;;;;;;51.80;34.72;;;22.40;99.90;;;;;;5049809;28;20523;-75
2023/09/12 10:20:53;;;;;;;46.80;33.33;;;22.40;99.90;;;;;;5041608;28;20043;-74
2023/09/12 10:23:33;;;;;;;48.00;32.63;;;22.40;99.90;;;;;;5047682;28;20581;-75
2023/09/12 10:26:00;;;;;;;50.78;34.10;;;22.50;99.90;;;;;;5048452;28;20719;-73
2023/09/12 10:28:26;;;;;;;44.63;31.27;;;22.70;99.90;;;;;;5049743;28;20049;-73
2023/09/12 10:30:53;;;;;;;43.97;28.95;;;23.00;99.90;;;;;;5048406;28;20071;-72
2023/09/12 10:33:19;;;;;;;41.10;30.35;;;23.20;99.90;;;;;;5048361;28;20191;-73
2023/09/12 10:35:46;;;;;;;51.67;33.67;;;23.60;99.90;;;;;;5048264;28;20045;-77
2023/09/12 10:38:14;;;;;;;45.47;30.00;;;23.60;99.90;;;;;;5048511;28;20456;-77
2023/09/12 10:40:40;;;;;;;46.55;28.75;;;23.60;99.90;;;;;;5048319;28;20357;-76
2023/09/12 10:43:09;;;;;;;38.80;27.17;;;23.70;99.90;;;;;;5049765;28;20152;-80
2023/09/12 10:45:36;;;;;;;42.22;26.85;;;23.80;99.90;;;;;;5049296;28;20059;-76
2023/09/12 10:48:03;;;;;;;36.38;24.50;;;23.80;99.90;;;;;;5048207;28;20130;-74
2023/09/12 10:50:29;;;;;;;37.40;26.15;;;23.90;99.90;;;;;;5049833;28;20108;-75
2023/09/12 10:52:54;;;;;;;38.72;25.25;;;23.90;99.90;;;;;;5049397;28;20029;-75
2023/09/12 10:55:20;;;;;;;30.83;22.13;;;24.00;99.90;;;;;;5047350;28;20527;-76
2023/09/12 10:58:04;;;;;;;35.80;23.05;;;24.00;99.90;;;;;;5047234;28;20407;-76
2023/09/12 11:00:32;;;;;;;27.63;19.87;;;24.20;99.90;;;;;;5051760;28;20056;-75
2023/09/12 11:03:00;;;;;;;28.27;19.73;;;24.20;99.90;;;;;;5051649;28;20040;-73
2023/09/12 11:05:29;;;;;;;28.77;21.10;;;24.20;99.90;;;;;;5049123;28;20049;-76
2023/09/12 11:07:59;;;;;;;29.50;19.88;;;24.20;99.90;;;;;;5047637;28;20045;-72
2023/09/12 11:10:26;;;;;;;29.02;19.50;;;24.20;99.90;;;;;;5046958;28;20045;-73
2023/09/12 11:12:54;;;;;;;27.13;18.10;;;24.20;99.90;;;;;;5049139;28;20044;-72
2023/09/12 11:15:22;;;;;;;26.15;18.80;;;24.20;99.90;;;;;;5048237;28;20057;-72
2023/09/12 11:17:49;;;;;;;28.60;20.63;;;24.20;99.90;;;;;;5048106;28;20084;-75
2023/09/12 11:20:16;;;;;;;32.33;21.60;;;24.20;99.90;;;;;;5031092;28;20057;-73
2023/09/12 11:22:47;;;;;;;32.72;20.77;;;24.20;99.90;;;;;;5047916;28;20127;-72
2023/09/12 11:25:25;;;;;;;29.52;19.52;;;24.20;99.90;;;;;;5050216;28;20369;-72
2023/09/12 11:27:50;;;;;;;30.52;20.70;;;24.30;99.90;;;;;;5052899;28;20060;-72
2023/09/12 11:30:17;;;;;;;32.08;21.15;;;24.40;99.90;;;;;;5053155;28;20131;-73
2023/09/12 11:32:46;;;;;;;30.83;21.48;;;24.40;99.90;;;;;;5053107;28;20061;-72
2023/09/12 11:35:14;;;;;;;33.78;21.77;;;24.40;99.90;;;;;;5051575;28;20141;-71
2023/09/12 11:37:47;;;;;;;28.70;20.85;;;24.40;99.90;;;;;;5053178;28;20415;-71
2023/09/12 11:40:16;;;;;;;28.00;20.70;;;24.40;99.90;;;;;;5051474;28;20064;-73
2023/09/12 11:42:42;;;;;;;29.27;21.95;;;24.40;99.90;;;;;;5050945;28;20407;-72
2023/09/12 11:45:09;;;;;;;31.70;21.10;;;24.40;99.90;;;;;;5052430;28;20041;-73
2023/09/12 11:47:40;;;;;;;26.60;19.83;;;24.40;99.90;;;;;;5051266;28;20056;-73
2023/09/12 11:50:06;;;;;;;34.13;19.65;;;24.50;99.90;;;;;;5051638;28;20071;-74
2023/09/12 11:52:36;;;;;;;30.40;20.45;;;24.60;99.90;;;;;;5052326;28;20094;-76
2023/09/12 11:55:02;;;;;;;28.13;20.83;;;24.60;99.90;;;;;;5045087;28;20106;-74
2023/09/12 11:57:29;;;;;;;28.42;18.35;;;24.80;99.90;;;;;;5052196;28;20048;-73
2023/09/12 11:59:56;;;;;;;25.88;16.23;;;25.00;99.90;;;;;;5052469;28;20468;-75
2023/09/12 12:02:23;;;;;;;22.10;15.63;;;25.20;99.90;;;;;;5052480;28;20144;-76
2023/09/12 12:04:50;;;;;;;21.05;16.10;;;25.20;99.90;;;;;;5050814;28;20060;-75
2023/09/12 12:07:16;;;;;;;23.90;16.90;;;25.40;99.90;;;;;;5050342;28;20086;-76
2023/09/12 12:09:42;;;;;;;22.23;15.75;;;25.50;99.90;;;;;;5034164;28;20060;-75
2023/09/12 12:12:14;;;;;;;20.60;16.17;;;25.60;99.90;;;;;;5039987;28;20510;-74
2023/09/12 12:14:41;;;;;;;25.65;16.90;;;25.40;99.90;;;;;;5052597;28;20053;-74
2023/09/12 12:17:09;;;;;;;24.38;15.65;;;25.70;99.90;;;;;;5050563;28;20037;-75
2023/09/12 12:19:36;;;;;;;23.83;18.27;;;25.80;99.90;;;;;;5051914;28;20043;-74
2023/09/12 12:22:05;;;;;;;17.67;12.93;;;25.90;99.90;;;;;;5046790;28;20041;-75
2023/09/12 12:24:45;;;;;;;21.70;13.00;;;26.10;99.90;;;;;;5052343;28;20360;-73
2023/09/12 12:27:11;;;;;;;19.17;13.88;;;26.20;99.90;;;;;;5046258;28;20069;-73